createdAt,value
2023-03-24T00:01:05.671Z,74.70
2023-03-24T00:03:32.759Z,74.70
2023-03-24T00:06:04.609Z,74.70
2023-03-24T00:08:35.915Z,74.70
2023-03-24T00:11:06.511Z,74.70
2023-03-24T00:13:38.158Z,74.70
2023-03-24T00:16:09.529Z,74.70
2023-03-24T00:18:37.717Z,74.70
2023-03-24T00:21:05.231Z,74.80
2023-03-24T00:23:35.080Z,74.90
2023-03-24T00:26:07.285Z,74.90
2023-03-24T00:28:35.018Z,75.10
2023-03-24T00:31:04.561Z,75.00
2023-03-24T00:33:33.022Z,75.00
2023-03-24T00:35:59.997Z,75.00
2023-03-24T00:38:26.838Z,75.00
2023-03-24T00:40:53.544Z,75.00
2023-03-24T00:43:20.576Z,75.10
2023-03-24T00:45:47.311Z,75.00
2023-03-24T00:48:14.905Z,75.60
2023-03-24T00:50:45.919Z,75.00
2023-03-24T00:53:15.902Z,75.10
2023-03-24T00:55:46.208Z,75.00
2023-03-24T00:58:21.734Z,75.00
2023-03-24T01:00:53.791Z,74.90
2023-03-24T01:03:27.238Z,75.00
2023-03-24T01:05:57.666Z,75.10
2023-03-24T01:08:25.592Z,75.00
2023-03-24T01:10:53.272Z,75.10
2023-03-24T01:13:25.665Z,75.00
2023-03-24T01:15:52.933Z,75.10
2023-03-24T01:18:19.868Z,74.90
2023-03-24T01:20:49.029Z,75.00
2023-03-24T01:23:19.724Z,75.10
2023-03-24T01:25:48.117Z,75.00
2023-03-24T01:28:17.169Z,75.00
2023-03-24T01:30:44.317Z,75.70
2023-03-24T01:33:11.300Z,75.10
2023-03-24T01:35:37.986Z,75.20
2023-03-24T01:38:08.772Z,75.10
2023-03-24T01:40:37.002Z,75.10
2023-03-24T01:43:03.966Z,75.10
2023-03-24T01:45:51.068Z,75.10
2023-03-24T01:48:40.474Z,75.20
2023-03-24T01:51:12.223Z,75.20
2023-03-24T01:53:42.008Z,75.20
2023-03-24T01:56:08.813Z,75.20
2023-03-24T01:58:36.307Z,75.30
2023-03-24T02:01:03.282Z,75.20
2023-03-24T02:03:33.910Z,75.20
2023-03-24T02:06:02.414Z,75.30
2023-03-24T02:08:46.775Z,75.20
2023-03-24T02:11:13.424Z,75.30
2023-03-24T02:13:40.282Z,75.30
2023-03-24T02:16:19.109Z,75.20
2023-03-24T02:19:00.548Z,75.10
2023-03-24T02:21:39.190Z,75.20
2023-03-24T02:24:33.784Z,75.10
2023-03-24T02:27:19.095Z,75.20
2023-03-24T02:29:52.069Z,75.10
2023-03-24T02:32:40.654Z,75.10
2023-03-24T02:35:21.995Z,75.00
2023-03-24T02:38:01.868Z,74.90
2023-03-24T02:40:58.607Z,74.90
2023-03-24T02:43:28.342Z,74.90
2023-03-24T02:46:24.799Z,74.90
2023-03-24T02:49:42.471Z,75.00
2023-03-24T02:52:37.896Z,74.90
2023-03-24T02:55:08.823Z,74.90
2023-03-24T02:57:56.144Z,74.90
2023-03-24T03:00:32.533Z,75.00
2023-03-24T03:03:07.639Z,74.90
2023-03-24T03:05:42.191Z,75.00
2023-03-24T03:08:09.800Z,75.00
2023-03-24T03:10:38.435Z,75.00
2023-03-24T03:13:08.406Z,74.90
2023-03-24T03:15:38.516Z,75.00
2023-03-24T03:18:29.057Z,74.90
2023-03-24T03:20:59.192Z,75.00
2023-03-24T03:23:30.470Z,75.00
2023-03-24T03:26:05.325Z,74.90
2023-03-24T03:28:36.967Z,74.90
2023-03-24T03:31:07.095Z,74.90
2023-03-24T03:33:45.926Z,74.90
2023-03-24T03:36:27.990Z,74.90
2023-03-24T03:39:05.096Z,74.90
2023-03-24T03:41:31.809Z,74.90
2023-03-24T03:43:58.533Z,74.90
2023-03-24T03:46:25.229Z,74.90
2023-03-24T03:48:51.980Z,74.90
2023-03-24T03:51:18.781Z,75.40
2023-03-24T03:53:48.967Z,74.80
2023-03-24T03:56:20.256Z,74.90
2023-03-24T03:58:48.528Z,74.90
2023-03-24T04:01:18.629Z,74.80
2023-03-24T04:03:49.436Z,74.80
2023-03-24T04:06:40.933Z,74.80
2023-03-24T04:09:27.828Z,74.80
2023-03-24T04:12:01.620Z,74.80
2023-03-24T04:14:40.353Z,74.80
2023-03-24T04:17:36.136Z,74.80
2023-03-24T04:20:29.005Z,74.80
2023-03-24T04:23:03.010Z,74.80
2023-03-24T04:25:35.173Z,74.80
2023-03-24T04:28:05.667Z,74.80
2023-03-24T04:30:57.795Z,74.80
2023-03-24T04:33:28.905Z,74.80
2023-03-24T04:36:06.506Z,74.80
2023-03-24T04:38:35.668Z,74.80
2023-03-24T04:41:02.440Z,74.80
2023-03-24T04:43:36.571Z,74.80
2023-03-24T04:46:04.653Z,74.70
2023-03-24T04:48:31.465Z,74.70
2023-03-24T04:51:01.934Z,74.60
2023-03-24T04:53:29.233Z,74.70
2023-03-24T04:56:04.912Z,74.70
2023-03-24T04:58:31.859Z,74.70
2023-03-24T05:00:58.781Z,74.60
2023-03-24T05:03:25.760Z,74.70
2023-03-24T05:05:53.108Z,74.80
2023-03-24T05:08:20.056Z,74.80
2023-03-24T05:10:46.823Z,74.80
2023-03-24T05:13:13.678Z,74.80
2023-03-24T05:15:40.600Z,74.90
2023-03-24T05:18:07.469Z,74.80
2023-03-24T05:20:34.193Z,74.80
2023-03-24T05:23:01.850Z,74.90
2023-03-24T05:25:28.544Z,74.80
2023-03-24T05:27:55.551Z,74.80
2023-03-24T05:30:22.250Z,74.80
2023-03-24T05:32:48.967Z,74.80
2023-03-24T05:35:16.081Z,74.80
2023-03-24T05:37:42.835Z,74.80
2023-03-24T05:40:10.075Z,74.70
2023-03-24T05:42:36.816Z,74.80
2023-03-24T05:45:04.001Z,75.40
2023-03-24T05:47:30.795Z,74.80
2023-03-24T05:49:57.436Z,74.80
2023-03-24T05:52:24.400Z,74.70
2023-03-24T05:54:52.343Z,74.80
2023-03-24T05:57:19.430Z,74.80
2023-03-24T05:59:46.163Z,74.80
2023-03-24T06:02:12.841Z,74.70
2023-03-24T06:04:39.617Z,74.70
2023-03-24T06:07:06.400Z,74.60
2023-03-24T06:09:37.186Z,74.60
2023-03-24T06:12:05.434Z,74.60
2023-03-24T06:14:33.793Z,74.60
2023-03-24T06:17:00.665Z,74.50
2023-03-24T06:19:30.551Z,75.00
2023-03-24T06:22:00.560Z,74.40
2023-03-24T06:24:27.440Z,74.40
2023-03-24T06:26:59.009Z,74.30
2023-03-24T06:29:25.675Z,74.30
2023-03-24T06:31:52.387Z,74.30
2023-03-24T06:34:19.105Z,74.10
2023-03-24T06:36:45.868Z,74.10
2023-03-24T06:39:13.265Z,74.60
2023-03-24T06:41:40.032Z,73.80
2023-03-24T06:44:06.752Z,73.90
2023-03-24T06:46:33.420Z,74.40
2023-03-24T06:49:00.198Z,75.00
2023-03-24T06:51:26.840Z,75.00
2023-03-24T06:53:53.486Z,74.50
2023-03-24T06:56:21.196Z,74.40
2023-03-24T06:58:49.151Z,74.40
2023-03-24T07:01:16.018Z,75.20
2023-03-24T07:03:43.308Z,75.50
2023-03-24T07:06:10.561Z,74.90
2023-03-24T07:08:38.852Z,75.00
2023-03-24T07:11:07.046Z,75.20
2023-03-24T07:13:33.778Z,75.00
2023-03-24T07:16:00.526Z,75.00
2023-03-24T07:18:27.272Z,75.00
2023-03-24T07:20:53.965Z,74.70
2023-03-24T07:23:20.831Z,75.20
2023-03-24T07:25:47.484Z,74.30
2023-03-24T07:28:14.250Z,74.20
2023-03-24T07:30:41.304Z,74.30
2023-03-24T07:33:10.084Z,74.40
2023-03-24T07:35:37.072Z,74.40
2023-03-24T07:38:03.774Z,74.50
2023-03-24T07:40:30.667Z,74.50
2023-03-24T07:43:00.474Z,74.50
2023-03-24T07:45:28.462Z,74.60
2023-03-24T07:47:57.281Z,74.60
2023-03-24T07:50:24.022Z,74.50
2023-03-24T07:52:50.894Z,74.50
2023-03-24T07:55:17.683Z,74.40
2023-03-24T07:57:46.715Z,74.20
2023-03-24T08:00:18.129Z,74.00
2023-03-24T08:02:46.427Z,74.00
2023-03-24T08:05:14.566Z,73.90
2023-03-24T08:07:45.003Z,73.90
2023-03-24T08:10:12.843Z,74.00
2023-03-24T08:12:39.855Z,73.90
2023-03-24T08:15:07.663Z,73.80
2023-03-24T08:17:34.435Z,73.80
2023-03-24T08:20:03.990Z,73.90
2023-03-24T08:22:32.208Z,74.60
2023-03-24T08:24:58.898Z,74.10
2023-03-24T08:27:25.682Z,73.90
2023-03-24T08:29:52.406Z,73.70
2023-03-24T08:32:19.068Z,73.80
2023-03-24T08:34:45.796Z,73.80
2023-03-24T08:37:12.988Z,73.80
2023-03-24T08:39:39.882Z,73.50
2023-03-24T08:42:06.701Z,73.60
2023-03-24T08:44:33.391Z,73.40
2023-03-24T08:47:03.508Z,73.40
2023-03-24T08:49:30.498Z,73.50
2023-03-24T08:51:57.202Z,73.50
2023-03-24T08:54:24.741Z,74.20
2023-03-24T08:56:51.707Z,73.70
2023-03-24T08:59:18.478Z,73.60
2023-03-24T09:01:45.754Z,73.40
2023-03-24T09:04:12.909Z,74.10
2023-03-24T09:06:39.771Z,73.50
2023-03-24T09:09:07.541Z,73.50
2023-03-24T09:11:35.407Z,73.50
2023-03-24T09:14:03.060Z,73.40
2023-03-24T09:16:30.097Z,73.40
2023-03-24T09:18:56.797Z,73.40
2023-03-24T09:21:23.601Z,73.40
2023-03-24T09:23:50.324Z,73.40
2023-03-24T09:26:17.004Z,73.20
2023-03-24T09:28:43.680Z,73.00
2023-03-24T09:31:11.525Z,72.90
2023-03-24T09:33:38.315Z,72.80
2023-03-24T09:36:05.523Z,72.70
2023-03-24T09:38:33.545Z,72.60
2023-03-24T09:41:03.614Z,72.70
2023-03-24T09:43:52.498Z,72.60
2023-03-24T09:46:49.636Z,73.30
2023-03-24T09:49:23.470Z,73.40
2023-03-24T09:51:50.296Z,73.30
2023-03-24T09:54:46.729Z,74.90
2023-03-24T09:57:37.257Z,73.90
2023-03-24T10:00:19.502Z,73.30
2023-03-24T10:02:46.844Z,72.90
2023-03-24T10:05:35.373Z,72.70
2023-03-24T10:08:26.424Z,72.60
2023-03-24T10:10:53.081Z,72.10
2023-03-24T10:13:30.361Z,71.90
2023-03-24T10:16:30.836Z,71.90
2023-03-24T10:18:57.525Z,71.90
2023-03-24T10:21:27.899Z,71.80
2023-03-24T10:24:23.680Z,71.70
2023-03-24T10:27:16.639Z,71.50
2023-03-24T10:29:45.394Z,71.50
2023-03-24T10:32:21.910Z,71.50
2023-03-24T10:34:57.544Z,71.60
2023-03-24T10:37:24.310Z,71.90
2023-03-24T10:39:51.916Z,72.30
2023-03-24T10:42:24.064Z,72.30
2023-03-24T10:44:51.086Z,69.50
2023-03-24T10:47:19.735Z,67.60
2023-03-24T10:49:54.274Z,66.50
2023-03-24T10:52:21.179Z,65.80
2023-03-24T10:54:58.647Z,64.60
2023-03-24T10:57:25.694Z,66.50
2023-03-24T11:00:19.280Z,66.40
2023-03-24T11:02:46.198Z,66.00
2023-03-24T11:05:22.439Z,66.40
2023-03-24T11:07:49.956Z,66.40
2023-03-24T11:10:24.807Z,67.00
2023-03-24T11:12:54.303Z,67.40
2023-03-24T11:15:23.504Z,67.00
2023-03-24T11:17:57.282Z,67.30
2023-03-24T11:20:33.034Z,66.90
2023-03-24T11:23:35.431Z,66.20
2023-03-24T11:26:23.684Z,66.80
2023-03-24T11:28:58.117Z,66.70
2023-03-24T11:31:26.714Z,67.00
2023-03-24T11:34:08.975Z,66.80
2023-03-24T11:36:38.049Z,67.00
2023-03-24T11:39:19.242Z,67.00
2023-03-24T11:42:10.293Z,68.00
2023-03-24T11:44:47.155Z,67.20
2023-03-24T11:47:28.496Z,67.70
2023-03-24T11:50:15.033Z,67.00
2023-03-24T11:52:48.059Z,66.60
2023-03-24T11:55:48.027Z,66.60
2023-03-24T11:58:39.573Z,66.50
2023-03-24T12:01:15.825Z,66.20
2023-03-24T12:04:07.343Z,66.50
2023-03-24T12:06:42.793Z,66.50
2023-03-24T12:09:39.472Z,66.30
2023-03-24T12:12:20.424Z,65.90
2023-03-24T12:15:21.066Z,66.50
2023-03-24T12:18:31.287Z,65.90
2023-03-24T12:21:34.973Z,66.40
2023-03-24T12:24:35.486Z,66.10
2023-03-24T12:27:02.264Z,65.90
2023-03-24T12:29:29.635Z,65.80
2023-03-24T12:32:20.626Z,65.90
2023-03-24T12:35:00.624Z,66.60
2023-03-24T12:37:45.374Z,65.80
2023-03-24T12:40:12.975Z,65.20
2023-03-24T12:42:40.988Z,66.10
2023-03-24T12:45:27.917Z,65.10
2023-03-24T12:48:03.652Z,64.70
2023-03-24T12:50:46.623Z,64.60
2023-03-24T12:53:33.123Z,64.50
2023-03-24T12:56:03.282Z,62.30
2023-03-24T12:58:49.550Z,63.60
2023-03-24T13:01:20.852Z,64.00
2023-03-24T13:03:50.516Z,64.20
2023-03-24T13:06:36.232Z,65.10
2023-03-24T13:09:35.479Z,64.90
2023-03-24T13:12:07.864Z,65.20
2023-03-24T13:14:45.353Z,64.20
2023-03-24T13:17:17.300Z,64.70
2023-03-24T13:19:44.034Z,64.70
2023-03-24T13:22:16.750Z,65.10
2023-03-24T13:24:44.640Z,65.00
2023-03-24T13:27:33.366Z,65.30
2023-03-24T13:30:13.487Z,64.70
2023-03-24T13:32:48.180Z,64.00
2023-03-24T13:35:42.873Z,65.20
2023-03-24T13:38:37.630Z,65.10
2023-03-24T13:41:05.716Z,64.80
2023-03-24T13:43:33.012Z,64.80
2023-03-24T13:46:07.463Z,64.80
2023-03-24T13:48:38.923Z,65.20
2023-03-24T13:51:26.698Z,65.30
2023-03-24T13:54:22.661Z,64.00
2023-03-24T13:57:12.211Z,65.10
2023-03-24T13:59:42.946Z,64.40
2023-03-24T14:02:31.017Z,65.20
2023-03-24T14:05:11.834Z,64.80
2023-03-24T14:07:41.416Z,65.40
2023-03-24T14:10:17.414Z,64.60
2023-03-24T14:12:59.103Z,64.20
2023-03-24T14:15:35.725Z,64.90
2023-03-24T14:18:14.645Z,64.70
2023-03-24T14:20:57.968Z,62.90
2023-03-24T14:23:31.790Z,63.90
2023-03-24T14:25:58.543Z,64.10
2023-03-24T14:28:38.786Z,63.70
2023-03-24T14:31:17.354Z,61.60
2023-03-24T14:33:53.973Z,62.90
2023-03-24T14:36:31.353Z,62.50
2023-03-24T14:39:18.492Z,61.00
2023-03-24T14:41:45.517Z,62.90
2023-03-24T14:44:12.675Z,62.40
2023-03-24T14:46:44.487Z,62.20
2023-03-24T14:49:30.444Z,61.30
2023-03-24T14:52:24.733Z,62.20
2023-03-24T14:54:56.337Z,61.10
2023-03-24T14:57:30.919Z,60.50
2023-03-24T15:00:22.512Z,60.00
2023-03-24T15:02:52.991Z,60.60
2023-03-24T15:05:23.398Z,60.80
2023-03-24T15:08:06.015Z,61.50
2023-03-24T15:10:41.313Z,62.40
2023-03-24T15:13:25.769Z,61.50
2023-03-24T15:15:52.467Z,61.50
2023-03-24T15:18:19.230Z,62.30
2023-03-24T15:20:46.087Z,61.70
2023-03-24T15:23:23.862Z,61.60
2023-03-24T15:25:51.990Z,62.10
2023-03-24T15:28:22.036Z,61.80
2023-03-24T15:30:49.542Z,62.20
2023-03-24T15:33:17.075Z,62.20
2023-03-24T15:35:44.759Z,61.60
2023-03-24T15:38:27.312Z,62.30
2023-03-24T15:41:13.205Z,61.90
2023-03-24T15:43:49.250Z,62.30
2023-03-24T15:46:30.712Z,61.90
2023-03-24T15:48:58.976Z,62.50
2023-03-24T15:51:58.524Z,61.70
2023-03-24T15:54:28.654Z,61.40
2023-03-24T15:57:02.265Z,61.60
2023-03-24T15:59:36.963Z,60.80
2023-03-24T16:02:04.961Z,61.30
2023-03-24T16:04:31.697Z,61.10
2023-03-24T16:06:58.371Z,60.60
2023-03-24T16:09:27.565Z,60.60
2023-03-24T16:11:54.711Z,60.70
2023-03-24T16:14:28.771Z,60.10
2023-03-24T16:16:59.791Z,61.10
2023-03-24T16:19:26.923Z,60.80
2023-03-24T16:21:54.859Z,60.40
2023-03-24T16:24:22.059Z,61.10
2023-03-24T16:26:49.968Z,62.20
2023-03-24T16:29:18.779Z,62.20
2023-03-24T16:31:49.214Z,61.70
2023-03-24T16:34:18.703Z,61.90
2023-03-24T16:36:46.629Z,61.50
2023-03-24T16:39:20.926Z,62.50
2023-03-24T16:41:47.757Z,62.90
2023-03-24T16:44:14.519Z,61.80
2023-03-24T16:46:41.373Z,62.30
2023-03-24T16:49:08.753Z,61.80
2023-03-24T16:51:35.489Z,63.50
2023-03-24T16:54:02.156Z,62.70
2023-03-24T16:56:28.852Z,61.30
2023-03-24T16:58:56.433Z,62.00
2023-03-24T17:01:38.129Z,61.10
2023-03-24T17:04:11.138Z,62.30
2023-03-24T17:06:39.507Z,63.90
2023-03-24T17:09:06.734Z,65.20
2023-03-24T17:11:35.719Z,63.30
2023-03-24T17:14:04.829Z,64.80
2023-03-24T17:16:33.290Z,64.30
2023-03-24T17:18:59.927Z,63.80
2023-03-24T17:21:26.600Z,63.40
2023-03-24T17:23:55.106Z,63.10
2023-03-24T17:26:22.360Z,63.00
2023-03-24T17:28:49.411Z,62.80
2023-03-24T17:31:16.328Z,63.50
2023-03-24T17:33:43.324Z,63.50
2023-03-24T17:36:16.574Z,63.60
2023-03-24T17:38:43.778Z,64.60
2023-03-24T17:41:10.987Z,65.20
2023-03-24T17:43:37.723Z,64.90
2023-03-24T17:46:04.695Z,65.20
2023-03-24T17:48:31.531Z,64.90
2023-03-24T17:50:58.282Z,65.40
2023-03-24T17:53:28.204Z,65.70
2023-03-24T17:55:56.959Z,64.90
2023-03-24T17:58:24.205Z,65.10
2023-03-24T18:00:51.346Z,65.00
2023-03-24T18:03:18.442Z,66.40
2023-03-24T18:05:45.407Z,64.90
2023-03-24T18:08:12.382Z,65.40
2023-03-24T18:10:39.130Z,65.50
2023-03-24T18:13:06.373Z,65.70
2023-03-24T18:15:34.429Z,65.40
2023-03-24T18:18:01.149Z,65.70
2023-03-24T18:20:28.035Z,60.00
2023-03-24T18:22:54.754Z,63.50
2023-03-24T18:25:22.005Z,63.80
2023-03-24T18:27:48.818Z,63.40
2023-03-24T18:30:16.822Z,63.80
2023-03-24T18:32:46.479Z,63.80
2023-03-24T18:35:18.435Z,64.00
2023-03-24T18:37:45.211Z,66.20
2023-03-24T18:40:12.184Z,65.00
2023-03-24T18:42:39.014Z,65.50
2023-03-24T18:45:06.766Z,66.00
2023-03-24T18:47:33.611Z,66.00
2023-03-24T18:50:00.738Z,66.30
2023-03-24T18:52:27.446Z,66.70
2023-03-24T18:54:54.290Z,66.80
2023-03-24T18:57:21.492Z,66.90
2023-03-24T18:59:48.653Z,66.90
2023-03-24T19:02:15.666Z,67.00
2023-03-24T19:04:43.241Z,67.10
2023-03-24T19:07:14.367Z,67.10
2023-03-24T19:09:42.335Z,67.10
2023-03-24T19:12:09.332Z,67.10
2023-03-24T19:14:36.600Z,67.10
2023-03-24T19:17:03.348Z,67.00
2023-03-24T19:19:31.659Z,67.40
2023-03-24T19:21:58.971Z,67.40
2023-03-24T19:24:28.812Z,67.30
2023-03-24T19:26:56.332Z,67.40
2023-03-24T19:29:23.576Z,67.40
2023-03-24T19:31:50.245Z,67.40
2023-03-24T19:34:17.773Z,67.40
2023-03-24T19:36:46.505Z,68.20
2023-03-24T19:39:15.160Z,67.50
2023-03-24T19:41:41.953Z,67.50
2023-03-24T19:44:08.644Z,67.50
2023-03-24T19:46:35.457Z,67.60
2023-03-24T19:49:02.182Z,67.60
2023-03-24T19:51:28.926Z,67.60
2023-03-24T19:53:55.764Z,67.70
2023-03-24T19:56:22.712Z,67.70
2023-03-24T19:58:49.474Z,67.50
2023-03-24T20:01:16.270Z,67.60
2023-03-24T20:03:43.024Z,67.40
2023-03-24T20:06:09.822Z,67.70
2023-03-24T20:08:37.692Z,67.60
2023-03-24T20:11:10.953Z,67.70
2023-03-24T20:13:37.816Z,67.70
2023-03-24T20:16:04.821Z,67.70
2023-03-24T20:18:31.778Z,67.50
2023-03-24T20:20:59.983Z,67.80
2023-03-24T20:23:26.850Z,68.00
2023-03-24T20:25:53.575Z,68.50
2023-03-24T20:28:20.348Z,68.30
2023-03-24T20:30:47.098Z,68.20
2023-03-24T20:33:13.910Z,67.30
2023-03-24T20:35:40.803Z,67.20
2023-03-24T20:38:07.593Z,67.70
2023-03-24T20:40:34.363Z,67.70
2023-03-24T20:43:01.111Z,67.80
2023-03-24T20:45:27.870Z,67.80
2023-03-24T20:47:54.624Z,67.50
2023-03-24T20:50:21.314Z,67.70
2023-03-24T20:52:47.980Z,67.70
2023-03-24T20:55:14.776Z,67.90
2023-03-24T20:57:41.494Z,67.50
2023-03-24T21:00:14.296Z,67.70
2023-03-24T21:02:42.286Z,67.70
2023-03-24T21:05:09.503Z,68.00
2023-03-24T21:07:42.407Z,67.70
2023-03-24T21:10:09.519Z,68.00
2023-03-24T21:12:36.445Z,68.00
2023-03-24T21:15:19.589Z,68.00
2023-03-24T21:17:46.502Z,68.10
2023-03-24T21:20:14.068Z,68.00
2023-03-24T21:22:53.546Z,68.10
2023-03-24T21:25:27.508Z,68.20
2023-03-24T21:27:54.536Z,68.20
2023-03-24T21:30:21.600Z,68.30
2023-03-24T21:32:48.747Z,68.30
2023-03-24T21:35:15.965Z,68.10
2023-03-24T21:37:45.675Z,68.20
2023-03-24T21:40:13.040Z,68.10
2023-03-24T21:42:42.499Z,68.40
2023-03-24T21:45:12.591Z,68.10
2023-03-24T21:47:39.650Z,68.60
2023-03-24T21:50:07.047Z,68.60
2023-03-24T21:52:38.886Z,69.30
2023-03-24T21:55:06.646Z,70.20
2023-03-24T21:57:33.378Z,71.30
2023-03-24T22:00:01.906Z,70.40
2023-03-24T22:02:30.349Z,70.70
2023-03-24T22:05:01.506Z,71.30
2023-03-24T22:07:37.415Z,70.70
2023-03-24T22:10:05.684Z,71.50
2023-03-24T22:12:32.858Z,71.20
2023-03-24T22:14:59.626Z,70.80
2023-03-24T22:17:26.368Z,71.00
2023-03-24T22:19:53.111Z,70.70
2023-03-24T22:22:19.757Z,71.30
2023-03-24T22:24:46.526Z,70.20
2023-03-24T22:27:13.175Z,71.20
2023-03-24T22:29:40.509Z,70.60
2023-03-24T22:32:07.235Z,71.00
2023-03-24T22:34:34.045Z,71.10
2023-03-24T22:37:00.826Z,71.00
2023-03-24T22:39:27.528Z,71.00
2023-03-24T22:41:54.215Z,70.80
2023-03-24T22:44:20.957Z,71.80
2023-03-24T22:46:47.636Z,71.30
2023-03-24T22:49:14.410Z,72.00
2023-03-24T22:51:41.764Z,72.10
2023-03-24T22:54:08.396Z,73.10
2023-03-24T22:56:35.309Z,72.00
2023-03-24T22:59:02.637Z,73.00
2023-03-24T23:01:29.338Z,71.80
2023-03-24T23:03:56.306Z,71.90
2023-03-24T23:06:23.067Z,73.90
2023-03-24T23:08:50.216Z,73.70
2023-03-24T23:11:16.887Z,75.10
2023-03-24T23:13:43.535Z,73.90
2023-03-24T23:16:10.540Z,73.90
2023-03-24T23:18:37.746Z,74.10
2023-03-24T23:21:12.485Z,74.40
2023-03-24T23:23:39.732Z,74.40
2023-03-24T23:26:07.311Z,73.50
2023-03-24T23:28:34.171Z,74.40
2023-03-24T23:31:01.041Z,73.50
2023-03-24T23:33:27.871Z,73.80
2023-03-24T23:35:58.181Z,73.20
2023-03-24T23:38:24.894Z,74.20
2023-03-24T23:40:51.544Z,74.00
2023-03-24T23:43:18.170Z,72.80
2023-03-24T23:45:45.429Z,72.80
2023-03-24T23:48:12.474Z,72.10
2023-03-24T23:50:39.101Z,73.00
2023-03-24T23:53:05.758Z,72.40
2023-03-24T23:55:32.944Z,73.00
2023-03-24T23:57:59.640Z,72.70
